Hebron, Kentucky
Current Conditions -  °F | °C
As of 8:52 PM on Friday 24 Oct 2014 (Local Time) from KCVG Reporting Station
Few Clouds Few Clouds  
Wind Chill: 55°   Ceiling: Unl
Heat Index: 55°   Visibility: 8mi
Dew Point: 40°   Wind: 3mph
Humidity: 57%   Direction: 250°WSW
Pressure: 30.05"   Gusts: NA
Location:  39.07°N, 84.7°W
Report Text: KCVG 250052Z 25003KT 8SM FEW250 13/04 A3005 RMK AO2 SLP175 T01280044
Loading
Personal Weather Stations






























Interactive Weather Map
Tropical Storm Tracking
New forecast layout! Learn more

10-Day Weather Forecast

Advertisements
Track Severe Weather on mobile